Oswego, South Carolina
Current Conditions -  °F | °C
As of 9:15 AM on Tuesday 27 Jan 2015 (Local Time) from KSMS Reporting Station
Unknown Precip Unknown Precip  
Wind Chill: 34°   Ceiling: Unl
Heat Index: 39°   Visibility: 10mi
Dew Point: 25°   Wind: 7mph
Humidity: 56%   Direction: 350°N
Pressure: 29.87"   Gusts: NA
Location:  33.9242°N, 80.1986°W
Report Text: KSMS 271415Z AUTO 35006KT 10SM -UP FEW110 04/M04 A2987 RMK AO2
Loading
Personal Weather Stations






























Interactive Weather Map New forecast layout! Learn more

10-Day Weather Forecast

Advertisements
Track Severe Weather on mobile